sensor_id;sensor_type;location;lat;lon;timestamp;P1;durP1;ratioP1;P2;durP2;ratioP2
44197;SDS011;30157;55.512;37.764;2024-03-23T00:56:14;41.88;;;22.75;;
44197;SDS011;30157;55.512;37.764;2024-03-23T00:58:40;44.97;;;23.17;;
44197;SDS011;30157;55.512;37.764;2024-03-23T01:01:06;44.15;;;20.55;;
44197;SDS011;30157;55.512;37.764;2024-03-23T01:03:32;43.53;;;22.75;;
44197;SDS011;30157;55.512;37.764;2024-03-23T01:06:00;44.47;;;21.38;;
44197;SDS011;30157;55.512;37.764;2024-03-23T01:08:27;44.53;;;22.38;;
44197;SDS011;30157;55.512;37.764;2024-03-23T01:10:56;41.17;;;21.92;;
44197;SDS011;30157;55.512;37.764;2024-03-23T01:13:22;44.15;;;23.02;;
44197;SDS011;30157;55.512;37.764;2024-03-23T01:15:51;40.75;;;20.48;;
44197;SDS011;30157;55.512;37.764;2024-03-23T01:18:18;45.58;;;23.17;;
44197;SDS011;30157;55.512;37.764;2024-03-23T01:20:44;44.83;;;24.17;;
44197;SDS011;30157;55.512;37.764;2024-03-23T01:23:10;45.25;;;22.42;;
44197;SDS011;30157;55.512;37.764;2024-03-23T01:25:37;44.20;;;19.83;;
44197;SDS011;30157;55.512;37.764;2024-03-23T01:28:03;43.53;;;21.90;;
44197;SDS011;30157;55.512;37.764;2024-03-23T01:30:29;42.45;;;21.23;;
44197;SDS011;30157;55.512;37.764;2024-03-23T01:32:55;45.60;;;23.20;;
44197;SDS011;30157;55.512;37.764;2024-03-23T01:35:21;41.75;;;20.50;;
44197;SDS011;30157;55.512;37.764;2024-03-23T01:37:47;46.70;;;23.83;;
44197;SDS011;30157;55.512;37.764;2024-03-23T01:40:13;41.50;;;20.95;;
44197;SDS011;30157;55.512;37.764;2024-03-23T01:42:39;42.67;;;21.63;;
44197;SDS011;30157;55.512;37.764;2024-03-23T01:45:08;44.03;;;21.40;;
44197;SDS011;30157;55.512;37.764;2024-03-23T01:47:35;42.63;;;21.73;;
44197;SDS011;30157;55.512;37.764;2024-03-23T01:50:01;39.17;;;19.75;;
44197;SDS011;30157;55.512;37.764;2024-03-23T01:52:29;44.00;;;22.20;;
44197;SDS011;30157;55.512;37.764;2024-03-23T01:54:56;47.20;;;24.38;;
44197;SDS011;30157;55.512;37.764;2024-03-23T01:57:21;45.90;;;21.25;;
44197;SDS011;30157;55.512;37.764;2024-03-23T01:59:47;43.75;;;21.42;;
44197;SDS011;30157;55.512;37.764;2024-03-23T02:02:22;41.90;;;20.85;;
44197;SDS011;30157;55.512;37.764;2024-03-23T02:04:48;44.53;;;21.38;;
44197;SDS011;30157;55.512;37.764;2024-03-23T02:07:14;45.45;;;22.63;;
44197;SDS011;30157;55.512;37.764;2024-03-23T02:09:39;44.63;;;21.70;;
44197;SDS011;30157;55.512;37.764;2024-03-23T02:12:05;44.95;;;20.42;;
44197;SDS011;30157;55.512;37.764;2024-03-23T02:14:31;41.30;;;20.70;;
44197;SDS011;30157;55.512;37.764;2024-03-23T02:16:57;43.97;;;21.63;;
44197;SDS011;30157;55.512;37.764;2024-03-23T02:19:23;46.83;;;22.05;;
44197;SDS011;30157;55.512;37.764;2024-03-23T02:21:49;40.35;;;20.70;;
44197;SDS011;30157;55.512;37.764;2024-03-23T02:24:15;42.13;;;20.38;;
44197;SDS011;30157;55.512;37.764;2024-03-23T02:26:41;44.50;;;22.88;;
44197;SDS011;30157;55.512;37.764;2024-03-23T02:29:06;38.13;;;18.77;;
44197;SDS011;30157;55.512;37.764;2024-03-23T02:31:35;44.63;;;20.90;;
44197;SDS011;30157;55.512;37.764;2024-03-23T02:34:01;43.42;;;21.70;;
44197;SDS011;30157;55.512;37.764;2024-03-23T02:36:27;42.13;;;19.42;;
44197;SDS011;30157;55.512;37.764;2024-03-23T02:38:53;44.30;;;21.55;;
44197;SDS011;30157;55.512;37.764;2024-03-23T02:41:19;44.58;;;20.95;;
44197;SDS011;30157;55.512;37.764;2024-03-23T02:43:48;40.83;;;20.60;;
44197;SDS011;30157;55.512;37.764;2024-03-23T02:46:17;43.03;;;21.10;;
44197;SDS011;30157;55.512;37.764;2024-03-23T02:48:43;40.33;;;19.77;;
44197;SDS011;30157;55.512;37.764;2024-03-23T02:51:09;41.88;;;21.40;;
44197;SDS011;30157;55.512;37.764;2024-03-23T02:53:34;43.55;;;22.23;;
44197;SDS011;30157;55.512;37.764;2024-03-23T02:56:00;43.85;;;20.90;;
44197;SDS011;30157;55.512;37.764;2024-03-23T02:58:26;36.80;;;18.33;;
44197;SDS011;30157;55.512;37.764;2024-03-23T03:00:52;40.20;;;20.00;;
44197;SDS011;30157;55.512;37.764;2024-03-23T03:03:17;41.15;;;21.35;;
44197;SDS011;30157;55.512;37.764;2024-03-23T03:05:43;42.92;;;20.90;;
44197;SDS011;30157;55.512;37.764;2024-03-23T03:08:09;43.53;;;20.52;;
44197;SDS011;30157;55.512;37.764;2024-03-23T03:10:34;43.25;;;20.45;;
44197;SDS011;30157;55.512;37.764;2024-03-23T03:13:02;40.53;;;20.52;;
44197;SDS011;30157;55.512;37.764;2024-03-23T03:15:28;41.53;;;20.80;;
44197;SDS011;30157;55.512;37.764;2024-03-23T03:17:54;42.42;;;21.27;;
44197;SDS011;30157;55.512;37.764;2024-03-23T03:20:19;40.45;;;20.40;;
44197;SDS011;30157;55.512;37.764;2024-03-23T03:22:47;38.65;;;20.20;;
44197;SDS011;30157;55.512;37.764;2024-03-23T03:25:13;38.97;;;19.23;;
44197;SDS011;30157;55.512;37.764;2024-03-23T03:27:39;42.28;;;22.15;;
44197;SDS011;30157;55.512;37.764;2024-03-23T03:30:05;42.42;;;20.90;;
44197;SDS011;30157;55.512;37.764;2024-03-23T03:32:32;38.55;;;19.80;;
44197;SDS011;30157;55.512;37.764;2024-03-23T03:34:58;44.92;;;22.73;;
44197;SDS011;30157;55.512;37.764;2024-03-23T03:37:24;39.85;;;20.55;;
44197;SDS011;30157;55.512;37.764;2024-03-23T03:39:49;39.60;;;21.13;;
44197;SDS011;30157;55.512;37.764;2024-03-23T03:42:15;42.40;;;20.60;;
44197;SDS011;30157;55.512;37.764;2024-03-23T03:44:41;40.90;;;20.90;;
44197;SDS011;30157;55.512;37.764;2024-03-23T03:47:07;40.47;;;19.90;;
44197;SDS011;30157;55.512;37.764;2024-03-23T03:49:33;41.15;;;20.85;;
44197;SDS011;30157;55.512;37.764;2024-03-23T03:51:58;42.45;;;20.52;;
44197;SDS011;30157;55.512;37.764;2024-03-23T03:54:26;42.50;;;20.92;;
44197;SDS011;30157;55.512;37.764;2024-03-23T03:56:52;39.15;;;18.77;;
44197;SDS011;30157;55.512;37.764;2024-03-23T03:59:18;39.65;;;20.45;;
44197;SDS011;30157;55.512;37.764;2024-03-23T04:01:44;40.40;;;19.50;;
44197;SDS011;30157;55.512;37.764;2024-03-23T04:04:10;43.97;;;22.27;;
44197;SDS011;30157;55.512;37.764;2024-03-23T04:06:36;43.03;;;20.08;;
44197;SDS011;30157;55.512;37.764;2024-03-23T04:09:02;40.97;;;20.40;;
44197;SDS011;30157;55.512;37.764;2024-03-23T04:11:28;39.38;;;20.00;;
44197;SDS011;30157;55.512;37.764;2024-03-23T04:13:54;42.00;;;20.42;;
44197;SDS011;30157;55.512;37.764;2024-03-23T04:16:29;40.45;;;19.52;;
44197;SDS011;30157;55.512;37.764;2024-03-23T04:18:59;40.55;;;18.90;;
44197;SDS011;30157;55.512;37.764;2024-03-23T04:21:25;42.63;;;20.08;;
44197;SDS011;30157;55.512;37.764;2024-03-23T04:23:51;36.88;;;19.23;;
44197;SDS011;30157;55.512;37.764;2024-03-23T04:26:17;39.13;;;20.80;;
44197;SDS011;30157;55.512;37.764;2024-03-23T04:28:43;37.88;;;20.45;;
44197;SDS011;30157;55.512;37.764;2024-03-23T04:31:09;39.60;;;19.02;;
44197;SDS011;30157;55.512;37.764;2024-03-23T04:33:35;35.63;;;18.08;;
44197;SDS011;30157;55.512;37.764;2024-03-23T04:36:00;36.70;;;19.83;;
44197;SDS011;30157;55.512;37.764;2024-03-23T04:38:26;36.75;;;20.42;;
44197;SDS011;30157;55.512;37.764;2024-03-23T04:40:55;37.58;;;19.58;;
44197;SDS011;30157;55.512;37.764;2024-03-23T04:43:21;26.25;;;12.45;;
44197;SDS011;30157;55.512;37.764;2024-03-23T04:45:48;34.97;;;18.50;;
44197;SDS011;30157;55.512;37.764;2024-03-23T04:48:13;33.03;;;18.13;;
44197;SDS011;30157;55.512;37.764;2024-03-23T04:50:39;37.10;;;18.05;;
44197;SDS011;30157;55.512;37.764;2024-03-23T04:53:06;35.40;;;18.27;;
44197;SDS011;30157;55.512;37.764;2024-03-23T04:55:33;35.95;;;18.23;;
44197;SDS011;30157;55.512;37.764;2024-03-23T04:57:58;36.25;;;17.85;;
44197;SDS011;30157;55.512;37.764;2024-03-23T05:00:25;37.70;;;19.58;;
44197;SDS011;30157;55.512;37.764;2024-03-23T05:02:51;35.58;;;19.02;;
44197;SDS011;30157;55.512;37.764;2024-03-23T05:05:18;35.75;;;20.23;;
44197;SDS011;30157;55.512;37.764;2024-03-23T05:07:44;32.40;;;17.95;;
44197;SDS011;30157;55.512;37.764;2024-03-23T05:10:10;32.67;;;17.95;;
44197;SDS011;30157;55.512;37.764;2024-03-23T05:12:39;35.50;;;19.00;;
44197;SDS011;30157;55.512;37.764;2024-03-23T05:15:05;31.35;;;18.73;;
44197;SDS011;30157;55.512;37.764;2024-03-23T05:17:33;37.03;;;19.63;;
44197;SDS011;30157;55.512;37.764;2024-03-23T05:20:00;38.38;;;21.15;;
44197;SDS011;30157;55.512;37.764;2024-03-23T05:22:26;32.28;;;18.02;;
44197;SDS011;30157;55.512;37.764;2024-03-23T05:24:52;37.47;;;21.02;;
44197;SDS011;30157;55.512;37.764;2024-03-23T05:27:19;33.70;;;18.90;;
44197;SDS011;30157;55.512;37.764;2024-03-23T05:29:45;37.65;;;20.13;;
44197;SDS011;30157;55.512;37.764;2024-03-23T05:32:11;37.75;;;20.48;;
44197;SDS011;30157;55.512;37.764;2024-03-23T05:34:36;36.58;;;19.30;;
44197;SDS011;30157;55.512;37.764;2024-03-23T05:37:02;37.28;;;20.70;;
44197;SDS011;30157;55.512;37.764;2024-03-23T05:39:28;36.83;;;19.70;;
44197;SDS011;30157;55.512;37.764;2024-03-23T05:41:54;36.25;;;18.33;;
44197;SDS011;30157;55.512;37.764;2024-03-23T05:44:19;37.65;;;20.38;;
44197;SDS011;30157;55.512;37.764;2024-03-23T05:46:45;41.25;;;20.70;;
44197;SDS011;30157;55.512;37.764;2024-03-23T05:49:15;37.53;;;20.23;;
44197;SDS011;30157;55.512;37.764;2024-03-23T05:51:42;39.83;;;21.58;;
44197;SDS011;30157;55.512;37.764;2024-03-23T05:54:08;39.08;;;21.65;;
44197;SDS011;30157;55.512;37.764;2024-03-23T05:56:34;36.25;;;18.98;;
44197;SDS011;30157;55.512;37.764;2024-03-23T05:59:00;44.60;;;22.45;;
44197;SDS011;30157;55.512;37.764;2024-03-23T06:01:26;42.30;;;23.60;;
44197;SDS011;30157;55.512;37.764;2024-03-23T06:03:54;48.47;;;24.30;;
44197;SDS011;30157;55.512;37.764;2024-03-23T06:06:20;43.05;;;22.80;;
44197;SDS011;30157;55.512;37.764;2024-03-23T06:08:45;43.70;;;24.15;;
44197;SDS011;30157;55.512;37.764;2024-03-23T06:11:11;46.55;;;25.45;;
44197;SDS011;30157;55.512;37.764;2024-03-23T06:13:37;52.00;;;25.83;;
44197;SDS011;30157;55.512;37.764;2024-03-23T06:16:03;53.90;;;26.20;;
44197;SDS011;30157;55.512;37.764;2024-03-23T06:18:29;51.72;;;27.80;;
44197;SDS011;30157;55.512;37.764;2024-03-23T06:20:55;42.67;;;22.40;;
44197;SDS011;30157;55.512;37.764;2024-03-23T06:23:20;53.75;;;26.70;;
44197;SDS011;30157;55.512;37.764;2024-03-23T06:25:46;44.05;;;22.08;;
44197;SDS011;30157;55.512;37.764;2024-03-23T06:28:12;49.35;;;25.15;;
44197;SDS011;30157;55.512;37.764;2024-03-23T06:30:38;52.42;;;26.58;;
44197;SDS011;30157;55.512;37.764;2024-03-23T06:33:04;47.38;;;26.02;;
44197;SDS011;30157;55.512;37.764;2024-03-23T06:35:33;46.58;;;24.73;;
44197;SDS011;30157;55.512;37.764;2024-03-23T06:37:58;49.60;;;26.08;;
44197;SDS011;30157;55.512;37.764;2024-03-23T06:40:24;48.50;;;24.90;;
44197;SDS011;30157;55.512;37.764;2024-03-23T06:42:50;50.42;;;26.40;;
44197;SDS011;30157;55.512;37.764;2024-03-23T06:45:16;48.55;;;25.17;;
44197;SDS011;30157;55.512;37.764;2024-03-23T06:47:42;49.83;;;26.52;;
44197;SDS011;30157;55.512;37.764;2024-03-23T06:50:08;47.50;;;25.80;;
44197;SDS011;30157;55.512;37.764;2024-03-23T06:52:35;48.53;;;25.65;;
44197;SDS011;30157;55.512;37.764;2024-03-23T06:55:02;49.08;;;25.08;;
44197;SDS011;30157;55.512;37.764;2024-03-23T06:57:30;46.80;;;24.27;;
44197;SDS011;30157;55.512;37.764;2024-03-23T06:59:56;50.50;;;24.85;;
44197;SDS011;30157;55.512;37.764;2024-03-23T07:02:22;51.78;;;26.48;;
44197;SDS011;30157;55.512;37.764;2024-03-23T07:04:48;47.22;;;25.35;;
44197;SDS011;30157;55.512;37.764;2024-03-23T07:07:13;44.38;;;22.67;;
44197;SDS011;30157;55.512;37.764;2024-03-23T07:09:39;52.85;;;25.25;;
44197;SDS011;30157;55.512;37.764;2024-03-23T07:12:05;53.25;;;27.85;;
44197;SDS011;30157;55.512;37.764;2024-03-23T07:14:31;53.88;;;28.30;;
44197;SDS011;30157;55.512;37.764;2024-03-23T07:16:57;55.40;;;29.25;;
44197;SDS011;30157;55.512;37.764;2024-03-23T07:19:23;53.05;;;26.13;;
44197;SDS011;30157;55.512;37.764;2024-03-23T07:21:50;50.65;;;26.85;;
44197;SDS011;30157;55.512;37.764;2024-03-23T07:24:16;46.92;;;25.98;;
44197;SDS011;30157;55.512;37.764;2024-03-23T07:26:41;44.30;;;24.45;;
44197;SDS011;30157;55.512;37.764;2024-03-23T07:29:07;44.80;;;25.25;;
44197;SDS011;30157;55.512;37.764;2024-03-23T07:31:33;47.15;;;25.10;;
44197;SDS011;30157;55.512;37.764;2024-03-23T07:33:59;50.42;;;27.58;;
44197;SDS011;30157;55.512;37.764;2024-03-23T07:36:24;46.60;;;24.25;;
44197;SDS011;30157;55.512;37.764;2024-03-23T07:38:51;48.67;;;25.75;;
44197;SDS011;30157;55.512;37.764;2024-03-23T07:41:17;45.85;;;25.02;;
44197;SDS011;30157;55.512;37.764;2024-03-23T07:43:45;49.38;;;25.30;;
44197;SDS011;30157;55.512;37.764;2024-03-23T07:46:11;47.47;;;25.38;;
44197;SDS011;30157;55.512;37.764;2024-03-23T07:48:38;44.88;;;24.65;;
44197;SDS011;30157;55.512;37.764;2024-03-23T07:51:09;50.55;;;26.52;;
44197;SDS011;30157;55.512;37.764;2024-03-23T07:53:36;48.70;;;25.77;;
44197;SDS011;30157;55.512;37.764;2024-03-23T07:56:04;48.85;;;25.63;;
44197;SDS011;30157;55.512;37.764;2024-03-23T07:58:31;53.13;;;26.30;;
44197;SDS011;30157;55.512;37.764;2024-03-23T08:01:07;49.10;;;26.13;;
44197;SDS011;30157;55.512;37.764;2024-03-23T08:03:35;46.47;;;24.55;;
44197;SDS011;30157;55.512;37.764;2024-03-23T08:06:15;51.92;;;26.55;;
44197;SDS011;30157;55.512;37.764;2024-03-23T08:08:43;41.83;;;22.15;;
44197;SDS011;30157;55.512;37.764;2024-03-23T08:11:10;54.67;;;27.55;;
44197;SDS011;30157;55.512;37.764;2024-03-23T08:13:37;49.40;;;25.75;;
44197;SDS011;30157;55.512;37.764;2024-03-23T08:16:04;51.47;;;27.30;;
44197;SDS011;30157;55.512;37.764;2024-03-23T08:18:30;45.67;;;24.25;;
44197;SDS011;30157;55.512;37.764;2024-03-23T08:21:00;53.60;;;27.60;;
44197;SDS011;30157;55.512;37.764;2024-03-23T08:23:30;43.42;;;22.30;;
44197;SDS011;30157;55.512;37.764;2024-03-23T08:26:02;56.15;;;28.30;;
44197;SDS011;30157;55.512;37.764;2024-03-23T08:28:31;60.60;;;30.58;;
44197;SDS011;30157;55.512;37.764;2024-03-23T08:31:01;60.72;;;32.35;;
44197;SDS011;30157;55.512;37.764;2024-03-23T08:33:30;52.75;;;26.52;;
44197;SDS011;30157;55.512;37.764;2024-03-23T08:35:57;50.85;;;26.90;;
44197;SDS011;30157;55.512;37.764;2024-03-23T08:38:24;52.92;;;26.13;;
44197;SDS011;30157;55.512;37.764;2024-03-23T08:41:01;43.20;;;23.00;;
44197;SDS011;30157;55.512;37.764;2024-03-23T08:43:31;49.85;;;27.00;;
44197;SDS011;30157;55.512;37.764;2024-03-23T08:46:05;44.13;;;24.25;;
44197;SDS011;30157;55.512;37.764;2024-03-23T08:48:35;40.75;;;22.65;;
44197;SDS011;30157;55.512;37.764;2024-03-23T08:51:02;42.75;;;22.42;;
44197;SDS011;30157;55.512;37.764;2024-03-23T08:53:29;52.58;;;25.05;;
44197;SDS011;30157;55.512;37.764;2024-03-23T08:55:56;40.72;;;22.10;;
44197;SDS011;30157;55.512;37.764;2024-03-23T08:58:25;39.33;;;21.98;;
44197;SDS011;30157;55.512;37.764;2024-03-23T09:00:52;40.42;;;22.33;;
44197;SDS011;30157;55.512;37.764;2024-03-23T09:03:20;40.85;;;22.77;;
44197;SDS011;30157;55.512;37.764;2024-03-23T09:05:46;43.42;;;24.50;;
44197;SDS011;30157;55.512;37.764;2024-03-23T09:08:12;36.72;;;21.38;;
44197;SDS011;30157;55.512;37.764;2024-03-23T09:10:38;38.45;;;21.50;;
44197;SDS011;30157;55.512;37.764;2024-03-23T09:13:05;37.60;;;20.85;;
44197;SDS011;30157;55.512;37.764;2024-03-23T09:15:35;38.25;;;20.98;;
44197;SDS011;30157;55.512;37.764;2024-03-23T09:18:02;37.08;;;21.08;;
44197;SDS011;30157;55.512;37.764;2024-03-23T09:20:28;36.95;;;21.02;;
44197;SDS011;30157;55.512;37.764;2024-03-23T09:22:54;35.03;;;20.52;;
44197;SDS011;30157;55.512;37.764;2024-03-23T09:25:20;36.60;;;20.35;;
44197;SDS011;30157;55.512;37.764;2024-03-23T09:27:49;33.72;;;19.40;;
44197;SDS011;30157;55.512;37.764;2024-03-23T09:30:15;32.20;;;18.60;;
44197;SDS011;30157;55.512;37.764;2024-03-23T09:32:42;30.00;;;17.55;;
44197;SDS011;30157;55.512;37.764;2024-03-23T09:35:09;32.08;;;18.95;;
44197;SDS011;30157;55.512;37.764;2024-03-23T09:37:36;31.63;;;17.35;;
44197;SDS011;30157;55.512;37.764;2024-03-23T09:40:02;28.83;;;16.88;;
44197;SDS011;30157;55.512;37.764;2024-03-23T09:42:28;27.27;;;16.75;;
44197;SDS011;30157;55.512;37.764;2024-03-23T09:44:56;30.92;;;17.33;;
44197;SDS011;30157;55.512;37.764;2024-03-23T09:47:23;27.77;;;16.58;;
44197;SDS011;30157;55.512;37.764;2024-03-23T09:49:50;25.90;;;17.02;;
44197;SDS011;30157;55.512;37.764;2024-03-23T09:52:16;28.15;;;16.00;;
44197;SDS011;30157;55.512;37.764;2024-03-23T09:54:42;28.63;;;16.75;;
44197;SDS011;30157;55.512;37.764;2024-03-23T09:57:08;27.73;;;17.27;;
44197;SDS011;30157;55.512;37.764;2024-03-23T09:59:34;25.58;;;16.95;;
44197;SDS011;30157;55.512;37.764;2024-03-23T10:02:03;27.52;;;17.00;;
44197;SDS011;30157;55.512;37.764;2024-03-23T10:04:37;27.52;;;16.60;;
44197;SDS011;30157;55.512;37.764;2024-03-23T10:07:15;25.42;;;16.08;;
44197;SDS011;30157;55.512;37.764;2024-03-23T10:09:43;28.00;;;16.70;;
44197;SDS011;30157;55.512;37.764;2024-03-23T10:12:14;28.13;;;17.08;;
44197;SDS011;30157;55.512;37.764;2024-03-23T10:14:40;28.50;;;17.02;;
44197;SDS011;30157;55.512;37.764;2024-03-23T10:17:16;28.27;;;16.75;;
44197;SDS011;30157;55.512;37.764;2024-03-23T10:19:47;25.30;;;15.82;;
44197;SDS011;30157;55.512;37.764;2024-03-23T10:22:16;24.73;;;15.95;;
44197;SDS011;30157;55.512;37.764;2024-03-23T10:24:46;27.98;;;16.92;;
44197;SDS011;30157;55.512;37.764;2024-03-23T10:27:16;23.08;;;15.07;;
44197;SDS011;30157;55.512;37.764;2024-03-23T10:29:49;25.35;;;15.60;;
44197;SDS011;30157;55.512;37.764;2024-03-23T10:32:16;22.48;;;14.98;;
44197;SDS011;30157;55.512;37.764;2024-03-23T10:34:43;22.02;;;14.55;;
44197;SDS011;30157;55.512;37.764;2024-03-23T10:37:09;21.30;;;14.00;;
44197;SDS011;30157;55.512;37.764;2024-03-23T10:39:38;21.45;;;13.35;;
44197;SDS011;30157;55.512;37.764;2024-03-23T10:42:09;22.20;;;14.10;;
44197;SDS011;30157;55.512;37.764;2024-03-23T10:44:38;23.80;;;13.65;;
44197;SDS011;30157;55.512;37.764;2024-03-23T10:47:04;19.92;;;13.43;;
44197;SDS011;30157;55.512;37.764;2024-03-23T10:49:34;21.55;;;14.25;;
44197;SDS011;30157;55.512;37.764;2024-03-23T10:52:01;22.85;;;14.00;;
44197;SDS011;30157;55.512;37.764;2024-03-23T10:54:28;19.98;;;13.52;;
44197;SDS011;30157;55.512;37.764;2024-03-23T10:57:17;20.63;;;13.93;;
44197;SDS011;30157;55.512;37.764;2024-03-23T10:59:45;19.27;;;13.43;;
44197;SDS011;30157;55.512;37.764;2024-03-23T11:02:21;23.33;;;13.40;;
44197;SDS011;30157;55.512;37.764;2024-03-23T11:07:31;19.05;;;13.30;;
44197;SDS011;30157;55.512;37.764;2024-03-23T11:09:57;20.90;;;13.75;;
44197;SDS011;30157;55.512;37.764;2024-03-23T11:17:36;23.08;;;14.07;;
44197;SDS011;30157;55.512;37.764;2024-03-23T11:20:02;21.42;;;13.13;;
44197;SDS011;30157;55.512;37.764;2024-03-23T11:25:12;22.02;;;14.20;;
44197;SDS011;30157;55.512;37.764;2024-03-23T11:27:52;19.88;;;13.05;;
44197;SDS011;30157;55.512;37.764;2024-03-23T11:32:46;23.23;;;13.82;;
44197;SDS011;30157;55.512;37.764;2024-03-23T11:40:27;21.90;;;14.05;;
44197;SDS011;30157;55.512;37.764;2024-03-23T11:42:56;21.08;;;14.45;;
44197;SDS011;30157;55.512;37.764;2024-03-23T11:45:23;27.13;;;15.23;;
44197;SDS011;30157;55.512;37.764;2024-03-23T11:48:01;22.70;;;14.25;;
44197;SDS011;30157;55.512;37.764;2024-03-23T11:50:30;26.55;;;16.40;;
44197;SDS011;30157;55.512;37.764;2024-03-23T11:55:50;22.23;;;14.93;;
44197;SDS011;30157;55.512;37.764;2024-03-23T11:58:18;26.35;;;16.08;;
44197;SDS011;30157;55.512;37.764;2024-03-23T12:00:51;22.42;;;14.32;;
44197;SDS011;30157;55.512;37.764;2024-03-23T12:03:24;26.15;;;16.38;;
44197;SDS011;30157;55.512;37.764;2024-03-23T12:05:52;23.40;;;15.65;;
44197;SDS011;30157;55.512;37.764;2024-03-23T12:08:23;27.55;;;16.85;;
44197;SDS011;30157;55.512;37.764;2024-03-23T12:10:53;28.23;;;16.40;;
44197;SDS011;30157;55.512;37.764;2024-03-23T12:13:31;26.42;;;16.23;;
44197;SDS011;30157;55.512;37.764;2024-03-23T12:16:08;26.52;;;16.58;;
44197;SDS011;30157;55.512;37.764;2024-03-23T12:18:36;28.60;;;16.58;;
44197;SDS011;30157;55.512;37.764;2024-03-23T12:21:05;29.10;;;18.40;;
44197;SDS011;30157;55.512;37.764;2024-03-23T12:23:31;30.02;;;17.23;;
44197;SDS011;30157;55.512;37.764;2024-03-23T12:25:58;26.95;;;15.93;;
44197;SDS011;30157;55.512;37.764;2024-03-23T12:28:23;29.52;;;17.27;;
44197;SDS011;30157;55.512;37.764;2024-03-23T12:30:50;30.70;;;17.73;;
44197;SDS011;30157;55.512;37.764;2024-03-23T12:33:17;32.55;;;17.95;;
44197;SDS011;30157;55.512;37.764;2024-03-23T12:35:43;30.05;;;17.27;;
44197;SDS011;30157;55.512;37.764;2024-03-23T12:38:09;27.90;;;16.27;;
44197;SDS011;30157;55.512;37.764;2024-03-23T12:40:35;30.67;;;17.40;;
44197;SDS011;30157;55.512;37.764;2024-03-23T12:43:01;29.15;;;16.60;;
44197;SDS011;30157;55.512;37.764;2024-03-23T12:45:27;27.15;;;16.52;;
44197;SDS011;30157;55.512;37.764;2024-03-23T12:47:52;31.17;;;17.90;;
44197;SDS011;30157;55.512;37.764;2024-03-23T12:50:19;34.05;;;18.17;;
44197;SDS011;30157;55.512;37.764;2024-03-23T12:52:46;29.02;;;17.75;;
44197;SDS011;30157;55.512;37.764;2024-03-23T12:55:11;34.30;;;18.77;;
44197;SDS011;30157;55.512;37.764;2024-03-23T12:57:37;30.90;;;17.65;;
44197;SDS011;30157;55.512;37.764;2024-03-23T13:00:03;29.83;;;18.13;;
44197;SDS011;30157;55.512;37.764;2024-03-23T13:02:30;34.03;;;19.65;;
44197;SDS011;30157;55.512;37.764;2024-03-23T13:04:56;31.02;;;17.75;;
44197;SDS011;30157;55.512;37.764;2024-03-23T13:07:22;29.70;;;17.55;;
44197;SDS011;30157;55.512;37.764;2024-03-23T13:09:52;34.28;;;18.83;;
44197;SDS011;30157;55.512;37.764;2024-03-23T13:12:21;31.73;;;18.55;;
44197;SDS011;30157;55.512;37.764;2024-03-23T13:14:47;36.47;;;18.77;;
44197;SDS011;30157;55.512;37.764;2024-03-23T13:17:13;39.60;;;21.70;;
44197;SDS011;30157;55.512;37.764;2024-03-23T13:19:39;41.92;;;22.40;;
44197;SDS011;30157;55.512;37.764;2024-03-23T13:22:04;40.72;;;21.45;;
44197;SDS011;30157;55.512;37.764;2024-03-23T13:24:30;41.78;;;22.63;;
44197;SDS011;30157;55.512;37.764;2024-03-23T13:26:56;41.55;;;21.75;;
44197;SDS011;30157;55.512;37.764;2024-03-23T13:29:23;39.83;;;21.85;;
44197;SDS011;30157;55.512;37.764;2024-03-23T13:31:49;37.05;;;20.38;;
44197;SDS011;30157;55.512;37.764;2024-03-23T13:34:17;37.90;;;21.30;;
44197;SDS011;30157;55.512;37.764;2024-03-23T13:36:44;37.75;;;21.00;;
44197;SDS011;30157;55.512;37.764;2024-03-23T13:39:10;40.08;;;22.80;;
44197;SDS011;30157;55.512;37.764;2024-03-23T13:41:40;37.55;;;20.00;;
44197;SDS011;30157;55.512;37.764;2024-03-23T13:44:07;41.03;;;21.42;;
44197;SDS011;30157;55.512;37.764;2024-03-23T13:46:33;38.53;;;21.23;;
44197;SDS011;30157;55.512;37.764;2024-03-23T13:48:59;37.90;;;21.58;;
44197;SDS011;30157;55.512;37.764;2024-03-23T13:51:26;38.50;;;20.83;;
44197;SDS011;30157;55.512;37.764;2024-03-23T13:53:55;39.22;;;21.17;;
44197;SDS011;30157;55.512;37.764;2024-03-23T13:56:22;49.78;;;24.17;;
44197;SDS011;30157;55.512;37.764;2024-03-23T13:58:48;40.95;;;22.20;;
44197;SDS011;30157;55.512;37.764;2024-03-23T14:01:15;36.28;;;21.02;;
44197;SDS011;30157;55.512;37.764;2024-03-23T14:03:42;36.80;;;19.17;;
44197;SDS011;30157;55.512;37.764;2024-03-23T14:06:08;45.25;;;22.90;;
44197;SDS011;30157;55.512;37.764;2024-03-23T14:08:35;43.28;;;22.35;;
44197;SDS011;30157;55.512;37.764;2024-03-23T14:11:05;39.10;;;22.38;;
44197;SDS011;30157;55.512;37.764;2024-03-23T14:13:31;37.30;;;20.65;;
44197;SDS011;30157;55.512;37.764;2024-03-23T14:15:57;41.97;;;22.63;;
44197;SDS011;30157;55.512;37.764;2024-03-23T14:18:24;35.08;;;19.13;;
44197;SDS011;30157;55.512;37.764;2024-03-23T14:20:51;41.15;;;21.55;;
44197;SDS011;30157;55.512;37.764;2024-03-23T14:23:24;35.72;;;19.42;;
44197;SDS011;30157;55.512;37.764;2024-03-23T14:25:54;37.38;;;19.92;;
44197;SDS011;30157;55.512;37.764;2024-03-23T14:28:20;39.33;;;20.75;;
44197;SDS011;30157;55.512;37.764;2024-03-23T14:30:47;36.33;;;20.23;;
44197;SDS011;30157;55.512;37.764;2024-03-23T14:33:17;44.65;;;22.35;;
44197;SDS011;30157;55.512;37.764;2024-03-23T14:35:52;42.05;;;22.58;;
44197;SDS011;30157;55.512;37.764;2024-03-23T14:38:19;46.50;;;23.70;;
44197;SDS011;30157;55.512;37.764;2024-03-23T14:40:45;37.47;;;20.75;;
44197;SDS011;30157;55.512;37.764;2024-03-23T14:43:12;39.25;;;20.83;;
44197;SDS011;30157;55.512;37.764;2024-03-23T14:48:44;33.15;;;19.73;;
44197;SDS011;30157;55.512;37.764;2024-03-23T14:51:11;37.00;;;18.98;;
44197;SDS011;30157;55.512;37.764;2024-03-23T14:53:39;38.95;;;20.25;;
44197;SDS011;30157;55.512;37.764;2024-03-23T14:56:07;31.38;;;18.10;;
44197;SDS011;30157;55.512;37.764;2024-03-23T14:58:35;37.00;;;20.05;;
44197;SDS011;30157;55.512;37.764;2024-03-23T15:01:01;33.20;;;18.33;;
44197;SDS011;30157;55.512;37.764;2024-03-23T15:03:34;33.47;;;18.63;;
44197;SDS011;30157;55.512;37.764;2024-03-23T15:06:00;33.33;;;18.70;;
44197;SDS011;30157;55.512;37.764;2024-03-23T15:08:27;32.10;;;18.10;;
44197;SDS011;30157;55.512;37.764;2024-03-23T15:10:59;31.23;;;18.67;;
44197;SDS011;30157;55.512;37.764;2024-03-23T15:13:26;31.88;;;18.88;;
44197;SDS011;30157;55.512;37.764;2024-03-23T15:15:52;35.33;;;19.48;;
44197;SDS011;30157;55.512;37.764;2024-03-23T15:18:18;27.40;;;16.48;;
44197;SDS011;30157;55.512;37.764;2024-03-23T15:20:54;30.60;;;17.75;;
44197;SDS011;30157;55.512;37.764;2024-03-23T15:23:28;32.30;;;18.33;;
44197;SDS011;30157;55.512;37.764;2024-03-23T15:25:54;26.38;;;15.85;;
44197;SDS011;30157;55.512;37.764;2024-03-23T15:28:24;29.30;;;17.95;;